Time;durP1;ratioP1;P1;durP2;ratioP2;P2;SDS_P1;SDS_P2;PMS_P1;PMS_P2;Temp;Humidity;BMP_temperature;BMP_pressure;BME280_temperature;BME280_humidity;BME280_pressure;Samples;Min_cycle;Max_cycle;Signal;HPM_P1;HPM_P2
2022/05/16 00:02:15;;;;;;;10.00;4.22;;;14.30;99.90;;;;;;5042074;28;20041;-83
2022/05/16 00:04:44;;;;;;;9.57;4.10;;;14.30;99.90;;;;;;5042986;28;20037;-82
2022/05/16 00:07:10;;;;;;;11.60;4.45;;;14.30;99.90;;;;;;5043041;28;20086;-83
2022/05/16 00:09:36;;;;;;;10.85;4.38;;;14.30;99.90;;;;;;5037722;28;20045;-84
2022/05/16 00:12:03;;;;;;;8.93;3.97;;;14.40;99.90;;;;;;5036913;28;20036;-84
2022/05/16 00:14:28;;;;;;;7.87;4.20;;;14.40;99.90;;;;;;5022966;28;20041;-84
2022/05/16 00:16:54;;;;;;;9.65;3.78;;;14.40;99.90;;;;;;5040036;28;20041;-83
2022/05/16 00:19:19;;;;;;;7.68;3.72;;;14.40;99.90;;;;;;5037195;28;20051;-83
2022/05/16 00:21:45;;;;;;;10.35;4.18;;;14.40;99.90;;;;;;5039269;28;20119;-83
2022/05/16 00:24:11;;;;;;;9.10;3.58;;;;;;;;;;5035506;28;20056;-84
2022/05/16 00:26:39;;;;;;;7.97;3.78;;;;;;;;;;5019765;28;20075;-84
2022/05/16 00:29:05;;;;;;;8.07;3.42;;;14.80;99.90;;;;;;5037989;28;20548;-85
2022/05/16 00:31:31;;;;;;;7.90;3.85;;;14.90;99.90;;;;;;5034954;28;20033;-84
2022/05/16 00:33:57;;;;;;;10.55;3.40;;;14.80;99.90;;;;;;5037327;28;20069;-84
2022/05/16 00:36:23;;;;;;;12.30;3.92;;;14.80;99.90;;;;;;5036002;28;21814;-84
2022/05/16 00:38:50;;;;;;;9.43;3.83;;;14.80;99.90;;;;;;5036572;28;20035;-86
2022/05/16 00:41:16;;;;;;;9.17;3.60;;;14.70;99.90;;;;;;5038005;28;20407;-85
2022/05/16 00:43:53;;;;;;;9.52;3.50;;;14.80;99.90;;;;;;5041038;28;20296;-85
2022/05/16 00:46:20;;;;;;;10.20;3.92;;;14.70;99.90;;;;;;5063095;28;20048;-85
2022/05/16 00:48:47;;;;;;;8.88;3.50;;;14.90;99.90;;;;;;5058815;28;20033;-84
2022/05/16 00:51:18;;;;;;;8.73;3.90;;;14.70;99.90;;;;;;5057110;28;20096;-84
2022/05/16 00:53:45;;;;;;;10.80;3.60;;;14.80;99.90;;;;;;5038527;28;20071;-85
2022/05/16 00:56:10;;;;;;;10.57;3.88;;;14.60;99.90;;;;;;5040575;28;20106;-84
2022/05/16 00:58:40;;;;;;;8.88;4.00;;;14.80;99.90;;;;;;5045301;28;20045;-84
2022/05/16 01:04:47;;;;;;;9.23;3.80;;;14.60;99.90;;;;;;5029891;28;20043;-83
2022/05/16 01:06:39;;;;;;;11.43;3.78;;;14.60;99.90;;;;;;5042161;28;20131;-82
2022/05/16 01:09:06;;;;;;;11.02;3.97;;;14.60;99.90;;;;;;5022565;28;20287;-83
2022/05/16 01:11:32;;;;;;;10.27;3.78;;;14.50;99.90;;;;;;5032929;28;20044;-83
2022/05/16 01:13:58;;;;;;;10.05;3.80;;;14.50;99.90;;;;;;5067755;28;20033;-83
2022/05/16 01:16:23;;;;;;;7.75;3.25;;;14.40;99.90;;;;;;5052039;28;20076;-83
2022/05/16 01:18:49;;;;;;;12.15;3.67;;;14.40;99.90;;;;;;5048532;28;20040;-83
2022/05/16 01:21:23;;;;;;;9.02;4.13;;;14.30;99.90;;;;;;5049064;28;20151;-83
2022/05/16 01:24:06;;;;;;;9.35;3.60;;;14.40;99.90;;;;;;5044397;28;20502;-83
2022/05/16 01:26:33;;;;;;;9.15;3.67;;;14.30;99.90;;;;;;5042289;28;20460;-82
2022/05/16 01:28:59;;;;;;;9.93;3.70;;;14.40;99.90;;;;;;5040211;28;20462;-82
2022/05/16 01:31:25;;;;;;;9.18;3.75;;;14.30;99.90;;;;;;5040972;28;20104;-83
2022/05/16 01:33:51;;;;;;;10.85;3.88;;;14.30;99.90;;;;;;5038932;28;20071;-83
2022/05/16 01:36:16;;;;;;;8.32;3.13;;;14.40;99.90;;;;;;5039804;28;20072;-84
2022/05/16 01:38:42;;;;;;;10.88;3.75;;;14.40;99.90;;;;;;5044640;28;20438;-84
2022/05/16 01:41:19;;;;;;;8.43;3.33;;;14.30;99.90;;;;;;5041662;28;20071;-84
2022/05/16 01:43:51;;;;;;;9.18;3.85;;;14.30;99.90;;;;;;5039075;28;20100;-85
2022/05/16 01:46:24;;;;;;;8.55;3.15;;;14.30;99.90;;;;;;5037085;28;20107;-84
2022/05/16 01:48:52;;;;;;;6.90;3.15;;;14.30;99.90;;;;;;5022270;28;20426;-84
2022/05/16 01:51:18;;;;;;;8.70;3.20;;;14.30;99.90;;;;;;5023082;28;20492;-84
2022/05/16 01:53:44;;;;;;;8.43;3.05;;;14.30;99.90;;;;;;5038655;28;20036;-84
2022/05/16 01:56:10;;;;;;;8.90;3.33;;;14.20;99.90;;;;;;5044978;28;20041;-83
2022/05/16 01:58:36;;;;;;;9.25;3.03;;;14.00;99.90;;;;;;5040679;28;20034;-84
2022/05/16 02:01:03;;;;;;;8.82;3.33;;;14.10;99.90;;;;;;5042203;28;20153;-84
2022/05/16 02:03:28;;;;;;;10.10;3.37;;;14.20;99.90;;;;;;5040354;28;20686;-83
2022/05/16 02:05:54;;;;;;;9.38;3.55;;;14.10;99.90;;;;;;5040204;28;20045;-84
2022/05/16 02:08:20;;;;;;;7.78;3.30;;;14.10;99.90;;;;;;5040928;28;20064;-84
2022/05/16 02:10:46;;;;;;;10.45;3.55;;;14.20;99.90;;;;;;5038855;28;20776;-84
2022/05/16 02:13:13;;;;;;;10.05;3.47;;;;;;;;;;5020721;28;20439;-83
2022/05/16 02:15:40;;;;;;;7.18;3.10;;;;;;;;;;5040306;28;20111;-84
2022/05/16 02:18:08;;;;;;;8.67;3.20;;;;;;;;;;5045057;28;20033;-82
2022/05/16 02:20:34;;;;;;;7.28;3.53;;;;;;;;;;5040302;28;20049;-82
2022/05/16 02:25:46;;;;;;;8.10;3.53;;;;;;;;;;5039358;28;20099;-83
2022/05/16 02:28:25;;;;;;;10.02;3.47;;;;;;;;;;5024947;28;20383;-83
2022/05/16 02:30:53;;;;;;;9.23;3.60;;;;;;;;;;5023402;28;20038;-83
2022/05/16 02:33:23;;;;;;;16.08;3.63;;;;;;;;;;5021168;28;20051;-83
2022/05/16 02:35:50;;;;;;;12.65;3.53;;;;;;;;;;5020739;28;20049;-83
2022/05/16 02:38:18;;;;;;;9.35;3.42;;;;;;;;;;5038339;28;20041;-83
2022/05/16 02:40:45;;;;;;;9.23;3.40;;;;;;;;;;5036624;28;20413;-83
2022/05/16 02:43:13;;;;;;;9.15;3.15;;;;;;;;;;5039365;28;20037;-83
2022/05/16 02:45:40;;;;;;;9.18;3.97;;;;;;;;;;5019407;28;20044;-84
2022/05/16 02:48:07;;;;;;;10.98;3.60;;;;;;;;;;5046705;28;20121;-82
2022/05/16 02:50:34;;;;;;;8.60;3.40;;;;;;;;;;5044246;28;20747;-83
2022/05/16 02:53:01;;;;;;;9.63;3.53;;;;;;;;;;5037850;28;20091;-83
2022/05/16 02:55:31;;;;;;;11.20;3.97;;;;;;;;;;5036044;28;20056;-83
2022/05/16 02:57:58;;;;;;;11.38;3.90;;;;;;;;;;5042602;28;20037;-82
2022/05/16 03:00:25;;;;;;;9.50;3.00;;;;;;;;;;5039541;28;20102;-83
2022/05/16 03:02:51;;;;;;;11.27;3.77;;;13.80;99.90;;;;;;5045182;28;20370;-83
2022/05/16 03:05:18;;;;;;;12.63;3.20;;;;;;;;;;5025963;28;20094;-83
2022/05/16 03:07:44;;;;;;;9.52;3.42;;;13.60;99.90;;;;;;5041920;28;20642;-82
2022/05/16 03:10:15;;;;;;;10.10;3.70;;;13.60;99.90;;;;;;5039207;28;20090;-83
2022/05/16 03:12:42;;;;;;;10.02;3.40;;;13.60;99.90;;;;;;5043676;28;20088;-82
2022/05/16 03:15:08;;;;;;;9.88;3.42;;;13.50;99.90;;;;;;5044701;28;20124;-83
2022/05/16 03:17:34;;;;;;;11.40;3.78;;;13.50;99.90;;;;;;5043019;28;20041;-83
2022/05/16 03:20:00;;;;;;;8.65;3.50;;;13.50;99.90;;;;;;5040471;28;20139;-83
2022/05/16 03:22:25;;;;;;;10.35;3.33;;;13.60;99.90;;;;;;5043362;28;20525;-82
2022/05/16 03:24:51;;;;;;;8.43;3.33;;;13.40;99.90;;;;;;5040131;28;20043;-82
2022/05/16 03:27:16;;;;;;;18.42;4.47;;;13.60;99.90;;;;;;5041911;28;22047;-82
2022/05/16 03:29:42;;;;;;;9.55;3.38;;;13.50;99.90;;;;;;5040956;28;20041;-82
2022/05/16 03:32:08;;;;;;;9.65;3.42;;;13.40;99.90;;;;;;5041978;28;20037;-82
2022/05/16 03:34:33;;;;;;;7.45;3.30;;;13.50;99.90;;;;;;5024387;28;20037;-82
2022/05/16 03:36:59;;;;;;;8.25;3.13;;;13.50;99.90;;;;;;5040981;28;20339;-82
2022/05/16 03:42:09;;;;;;;8.82;3.75;;;13.30;99.90;;;;;;5044589;28;20455;-81
2022/05/16 03:44:35;;;;;;;8.48;3.60;;;13.30;99.90;;;;;;5043761;28;20044;-81
2022/05/16 03:47:01;;;;;;;9.32;3.65;;;13.30;99.90;;;;;;5039928;28;20505;-81
2022/05/16 03:49:26;;;;;;;8.65;3.85;;;13.30;99.90;;;;;;5043366;28;20397;-81
2022/05/16 03:51:53;;;;;;;9.80;3.47;;;13.30;99.90;;;;;;5042372;28;20056;-81
2022/05/16 03:54:19;;;;;;;9.85;3.38;;;13.30;99.90;;;;;;5042690;28;20091;-81
2022/05/16 03:56:45;;;;;;;8.27;3.58;;;13.30;99.90;;;;;;5034689;28;20120;-81
2022/05/16 03:59:11;;;;;;;11.75;3.50;;;13.30;99.90;;;;;;5037292;28;20127;-81
2022/05/16 04:01:37;;;;;;;8.02;3.40;;;13.30;99.90;;;;;;5020353;28;20588;-80
2022/05/16 04:04:03;;;;;;;8.57;3.35;;;13.30;99.90;;;;;;5020264;28;20057;-80
2022/05/16 04:06:28;;;;;;;8.98;3.40;;;13.40;99.90;;;;;;5035122;28;20045;-80
2022/05/16 04:08:54;;;;;;;11.23;3.75;;;13.30;99.90;;;;;;5035462;28;20048;-80
2022/05/16 04:11:20;;;;;;;9.18;3.10;;;13.40;99.90;;;;;;5053193;28;20126;-81
2022/05/16 04:13:46;;;;;;;10.30;3.53;;;13.50;99.90;;;;;;5044765;28;20079;-80
2022/05/16 04:16:13;;;;;;;9.77;3.30;;;13.50;99.90;;;;;;5045639;28;20041;-80
2022/05/16 04:18:40;;;;;;;6.18;3.35;;;13.50;99.90;;;;;;5043909;28;20037;-80
2022/05/16 04:21:05;;;;;;;10.15;3.55;;;13.60;99.90;;;;;;5043230;28;20049;-81
2022/05/16 04:23:32;;;;;;;8.05;3.60;;;13.60;99.90;;;;;;5041676;28;20083;-81
2022/05/16 04:25:58;;;;;;;7.85;3.35;;;13.60;99.90;;;;;;5041273;28;20481;-80
2022/05/16 04:28:23;;;;;;;7.75;3.63;;;13.60;99.90;;;;;;5042704;28;20125;-80
2022/05/16 04:30:49;;;;;;;8.80;3.50;;;13.60;99.90;;;;;;5039628;28;20040;-81
2022/05/16 04:33:14;;;;;;;7.30;3.22;;;13.60;99.90;;;;;;5025506;28;20037;-80
2022/05/16 04:35:41;;;;;;;9.23;3.33;;;13.70;99.90;;;;;;5031265;28;20041;-80
2022/05/16 04:38:07;;;;;;;9.68;3.58;;;13.80;99.90;;;;;;5048419;28;20047;-81
2022/05/16 04:40:33;;;;;;;9.23;3.35;;;13.90;99.90;;;;;;5047617;28;20032;-81
2022/05/16 04:42:59;;;;;;;7.35;3.33;;;14.40;99.90;;;;;;5050240;28;20037;-84
2022/05/16 04:45:28;;;;;;;9.35;3.33;;;15.20;99.90;;;;;;5048582;28;20516;-83
2022/05/16 04:48:01;;;;;;;13.18;4.10;;;15.80;99.90;;;;;;5045996;28;20440;-82
2022/05/16 04:50:29;;;;;;;9.73;3.50;;;15.90;99.90;;;;;;5047838;28;20080;-82
2022/05/16 04:52:55;;;;;;;8.57;3.13;;;16.00;99.90;;;;;;5045990;28;20061;-82
2022/05/16 04:55:21;;;;;;;6.07;3.33;;;16.60;99.90;;;;;;5047888;28;20048;-82
2022/05/16 04:57:47;;;;;;;7.50;3.20;;;17.10;99.90;;;;;;5030838;28;20051;-82
2022/05/16 05:00:15;;;;;;;11.98;3.53;;;17.50;99.90;;;;;;5056914;28;20150;-82
2022/05/16 05:02:40;;;;;;;7.32;2.95;;;17.80;99.90;;;;;;5050853;28;20052;-83
2022/05/16 05:05:07;;;;;;;7.93;3.65;;;17.80;99.90;;;;;;5052845;28;20040;-83
2022/05/16 05:07:35;;;;;;;8.55;3.58;;;17.60;99.90;;;;;;5048740;28;20033;-83
2022/05/16 05:15:30;;;;;;;8.70;3.47;;;16.90;99.90;;;;;;5043471;28;20252;-83
2022/05/16 05:17:56;;;;;;;7.95;3.53;;;17.30;99.90;;;;;;5024233;28;20501;-82
2022/05/16 05:20:22;;;;;;;10.82;3.53;;;17.40;99.90;;;;;;5042983;28;20045;-82
2022/05/16 05:22:48;;;;;;;8.82;3.30;;;18.20;99.90;;;;;;5025985;28;20395;-82
2022/05/16 05:25:19;;;;;;;7.25;3.15;;;18.60;99.90;;;;;;5036265;28;20504;-82
2022/05/16 05:27:47;;;;;;;8.73;3.53;;;18.90;99.90;;;;;;5042824;28;20060;-83
2022/05/16 05:30:16;;;;;;;8.75;3.28;;;19.10;99.90;;;;;;5042890;28;20050;-85
2022/05/16 05:32:42;;;;;;;9.13;3.53;;;19.60;99.90;;;;;;5029164;28;20037;-83
2022/05/16 05:35:09;;;;;;;9.45;3.33;;;20.00;99.90;;;;;;5042109;28;20052;-84
2022/05/16 05:37:35;;;;;;;6.53;3.40;;;20.60;99.90;;;;;;5041931;28;20509;-85
2022/05/16 05:40:02;;;;;;;8.65;2.83;;;20.30;99.10;;;;;;5039748;28;20044;-85
2022/05/16 05:42:28;;;;;;;9.75;3.15;;;20.30;98.00;;;;;;5038039;28;20045;-85
2022/05/16 05:44:54;;;;;;;8.15;3.33;;;19.30;98.50;;;;;;5038691;28;20116;-84
2022/05/16 05:47:20;;;;;;;8.18;3.20;;;18.80;99.90;;;;;;5039184;28;20123;-82
2022/05/16 05:49:45;;;;;;;9.43;3.38;;;18.50;99.90;;;;;;5022281;28;20048;-82
2022/05/16 05:52:11;;;;;;;7.93;3.38;;;18.10;99.90;;;;;;5039769;28;20558;-82
2022/05/16 05:54:37;;;;;;;6.60;3.22;;;17.90;99.90;;;;;;5038030;28;20053;-82
2022/05/16 05:57:06;;;;;;;7.88;3.30;;;17.70;99.90;;;;;;5038055;28;20030;-82
2022/05/16 05:59:31;;;;;;;9.10;2.97;;;18.40;99.90;;;;;;5039050;28;20037;-82
2022/05/16 06:01:57;;;;;;;9.55;3.42;;;18.90;99.90;;;;;;5038661;28;20103;-82
2022/05/16 06:04:22;;;;;;;15.90;3.72;;;18.90;99.90;;;;;;5005234;28;20045;-83
2022/05/16 06:06:48;;;;;;;7.75;3.42;;;18.70;99.90;;;;;;5034671;28;20061;-83
2022/05/16 06:09:14;;;;;;;10.48;3.72;;;18.60;99.90;;;;;;5027602;28;20045;-82
2022/05/16 06:11:39;;;;;;;5.82;3.47;;;18.90;99.90;;;;;;5036939;28;20051;-82
2022/05/16 06:14:05;;;;;;;8.63;3.30;;;19.30;99.90;;;;;;5039100;28;20049;-83
2022/05/16 06:16:30;;;;;;;10.07;3.67;;;20.30;99.90;;;;;;5026739;28;20587;-83
2022/05/16 06:18:56;;;;;;;10.93;3.83;;;21.00;99.20;;;;;;5041972;28;20448;-82
2022/05/16 06:21:23;;;;;;;10.90;3.72;;;21.50;97.40;;;;;;5029079;28;20484;-82
2022/05/16 06:23:48;;;;;;;7.55;3.38;;;21.50;95.50;;;;;;5022417;28;20037;-83
2022/05/16 06:26:14;;;;;;;9.30;3.97;;;21.70;95.50;;;;;;5037923;28;20041;-87
2022/05/16 06:28:40;;;;;;;10.85;3.85;;;21.90;93.80;;;;;;5042918;28;20037;-85
2022/05/16 06:31:06;;;;;;;10.02;3.35;;;22.50;93.00;;;;;;5043253;28;20115;-85
2022/05/16 06:33:32;;;;;;;11.63;3.33;;;22.30;90.80;;;;;;5037798;28;20382;-87
2022/05/16 06:36:00;;;;;;;7.15;3.30;;;22.20;91.40;;;;;;5038838;28;20044;-85
2022/05/16 06:38:29;;;;;;;8.90;3.28;;;22.60;91.10;;;;;;5038589;28;20032;-85
2022/05/16 06:40:55;;;;;;;7.20;3.13;;;22.70;90.60;;;;;;5037022;28;20127;-85
2022/05/16 06:43:23;;;;;;;9.82;3.33;;;22.90;90.10;;;;;;5021740;28;20041;-83
2022/05/16 06:45:50;;;;;;;8.32;3.65;;;23.10;92.30;;;;;;5040088;28;20782;-83
2022/05/16 06:48:16;;;;;;;9.88;3.42;;;23.80;87.90;;;;;;5037812;28;20072;-84
2022/05/16 06:50:44;;;;;;;10.10;3.70;;;23.90;85.00;;;;;;5005652;28;20067;-87
2022/05/16 06:53:20;;;;;;;8.75;3.13;;;24.20;82.50;;;;;;5038966;28;20074;-88
2022/05/16 06:55:46;;;;;;;9.35;3.58;;;;;;;;;;5043215;28;20045;-88
2022/05/16 06:58:12;;;;;;;7.07;3.20;;;24.00;78.30;;;;;;5043309;28;20164;-88
2022/05/16 07:00:37;;;;;;;9.20;3.08;;;23.60;79.50;;;;;;5044172;28;20041;-88
2022/05/16 07:03:04;;;;;;;8.10;3.03;;;23.90;79.80;;;;;;5045291;28;20115;-87
2022/05/16 07:05:30;;;;;;;9.50;3.13;;;23.50;78.70;;;;;;5044187;28;20163;-88
2022/05/16 07:07:57;;;;;;;12.38;3.38;;;23.60;79.40;;;;;;5012444;28;20869;-87
2022/05/16 07:10:24;;;;;;;7.72;3.42;;;23.30;80.20;;;;;;5035713;28;20132;-89
2022/05/16 07:12:49;;;;;;;8.27;3.42;;;23.60;80.80;;;;;;5017207;28;20115;-88
2022/05/16 07:15:15;;;;;;;6.93;3.22;;;23.90;79.10;;;;;;5036069;28;20187;-89
2022/05/16 07:17:40;;;;;;;9.65;2.78;;;24.00;79.00;;;;;;5031199;28;20053;-89
2022/05/16 07:20:06;;;;;;;8.48;3.05;;;24.30;78.80;;;;;;5033761;28;20056;-89
2022/05/16 07:22:32;;;;;;;9.43;3.10;;;23.60;76.10;;;;;;5042490;28;20040;-88
2022/05/16 07:24:59;;;;;;;9.43;3.28;;;24.00;76.00;;;;;;5057140;28;20037;-87
2022/05/16 07:30:10;;;;;;;7.93;2.78;;;23.90;77.00;;;;;;5051020;28;20044;-86
2022/05/16 07:32:42;;;;;;;8.73;3.00;;;24.20;77.70;;;;;;5023722;28;20135;-87
2022/05/16 07:35:11;;;;;;;8.77;3.08;;;23.80;76.70;;;;;;5045094;28;20041;-90
2022/05/16 07:37:36;;;;;;;9.73;3.20;;;23.20;76.80;;;;;;5045125;28;20044;-87
2022/05/16 07:40:03;;;;;;;13.98;3.17;;;23.10;77.80;;;;;;5029777;28;20052;-87
2022/05/16 07:42:29;;;;;;;8.25;3.03;;;22.90;78.10;;;;;;5010033;28;20053;-85
2022/05/16 07:44:54;;;;;;;9.35;3.15;;;22.50;79.50;;;;;;5039674;28;20045;-86
2022/05/16 07:47:20;;;;;;;8.45;2.88;;;22.60;80.30;;;;;;5014699;28;20195;-89
2022/05/16 07:49:45;;;;;;;9.10;3.17;;;22.40;80.80;;;;;;5021446;28;20041;-90
2022/05/16 07:52:11;;;;;;;8.35;3.58;;;22.20;81.80;;;;;;5044296;28;20052;-86
2022/05/16 07:54:37;;;;;;;7.50;2.95;;;22.20;81.60;;;;;;5039385;28;20049;-84
2022/05/16 07:57:04;;;;;;;10.15;3.25;;;22.20;83.80;;;;;;5048006;28;20400;-83
2022/05/16 07:59:30;;;;;;;10.15;3.30;;;22.30;82.90;;;;;;5043994;28;20045;-85
2022/05/16 08:01:55;;;;;;;7.45;3.22;;;22.20;83.30;;;;;;5032201;28;20126;-84
2022/05/16 08:04:21;;;;;;;5.72;2.63;;;22.30;84.00;;;;;;5040884;28;20045;-84
2022/05/16 08:06:47;;;;;;;9.20;3.25;;;22.20;84.00;;;;;;5041624;28;20037;-85
2022/05/16 08:11:57;;;;;;;5.65;2.88;;;22.50;84.00;;;;;;5044744;28;20048;-86
2022/05/16 08:14:23;;;;;;;6.05;3.20;;;22.50;83.50;;;;;;5037378;28;20040;-86
2022/05/16 08:16:48;;;;;;;6.60;2.90;;;22.90;84.20;;;;;;5036586;28;20048;-84
2022/05/16 08:19:15;;;;;;;4.97;2.55;;;23.20;84.40;;;;;;5037760;28;20044;-86
2022/05/16 08:21:42;;;;;;;10.00;3.13;;;23.50;81.70;;;;;;5040017;28;20044;-86
2022/05/16 08:24:09;;;;;;;10.03;3.20;;;23.20;80.00;;;;;;5037123;28;20041;-85
2022/05/16 08:26:36;;;;;;;6.85;2.60;;;23.50;78.70;;;;;;5038705;28;20538;-85
2022/05/16 08:29:03;;;;;;;7.57;3.00;;;23.70;79.30;;;;;;5037161;28;20033;-85
2022/05/16 08:31:29;;;;;;;8.75;3.38;;;23.60;78.60;;;;;;5038160;28;20056;-86
2022/05/16 08:33:56;;;;;;;8.52;2.92;;;24.10;79.20;;;;;;5041375;28;20056;-87
2022/05/16 08:41:55;;;;;;;9.20;2.72;;;24.30;76.90;;;;;;5035309;28;20102;-86
2022/05/16 08:44:27;;;;;;;9.80;2.85;;;24.40;76.90;;;;;;5037620;28;20037;-86
2022/05/16 08:47:06;;;;;;;9.00;3.28;;;24.60;77.00;;;;;;5038392;28;20466;-86
2022/05/16 08:49:55;;;;;;;8.20;2.50;;;24.50;76.60;;;;;;5035205;28;20048;-86
2022/05/16 08:52:31;;;;;;;10.18;3.13;;;24.60;76.30;;;;;;5040389;28;20053;-85
2022/05/16 08:55:04;;;;;;;9.65;3.00;;;24.50;75.90;;;;;;5034355;28;20045;-85
2022/05/16 08:57:53;;;;;;;8.23;2.75;;;24.60;77.00;;;;;;5035873;28;20059;-85
2022/05/16 09:00:27;;;;;;;8.38;2.90;;;24.50;77.10;;;;;;5023408;28;20082;-85
2022/05/16 09:02:55;;;;;;;8.00;3.05;;;24.60;76.00;;;;;;5037204;28;21767;-86
2022/05/16 09:05:28;;;;;;;6.85;2.95;;;24.70;75.70;;;;;;5040678;28;20048;-86
2022/05/16 09:07:56;;;;;;;5.35;2.80;;;24.90;76.40;;;;;;5034074;28;20040;-83
2022/05/16 09:10:26;;;;;;;8.77;3.10;;;24.80;74.40;;;;;;5036059;28;20045;-82
2022/05/16 09:13:30;;;;;;;8.40;3.05;;;25.20;75.40;;;;;;5037665;28;20052;-85
2022/05/16 09:16:27;;;;;;;6.07;2.72;;;25.10;76.70;;;;;;5034233;28;20155;-93
2022/05/16 09:19:32;;;;;;;6.30;2.50;;;25.40;74.40;;;;;;5036625;28;20091;-87
2022/05/16 09:22:14;;;;;;;8.80;2.78;;;25.60;74.60;;;;;;5038506;28;20045;-85
2022/05/16 09:24:58;;;;;;;8.20;3.17;;;25.70;73.40;;;;;;5039839;28;20037;-85
2022/05/16 09:30:24;;;;;;;4.50;2.70;;;26.40;72.90;;;;;;5041170;28;20060;-84
2022/05/16 09:33:06;;;;;;;5.47;2.47;;;26.90;70.00;;;;;;5037100;28;20072;-81
2022/05/16 09:35:55;;;;;;;6.07;2.63;;;26.90;68.00;;;;;;5023971;28;20125;-82
2022/05/16 09:38:22;;;;;;;6.10;2.65;;;26.70;67.00;;;;;;5038748;28;20262;-80
2022/05/16 09:41:15;;;;;;;7.67;2.90;;;26.60;70.40;;;;;;5049872;28;20407;-81
2022/05/16 09:43:43;;;;;;;6.78;2.72;;;26.60;67.40;;;;;;5035037;28;20717;-81
2022/05/16 09:46:25;;;;;;;6.60;2.88;;;26.80;67.70;;;;;;5050571;28;20094;-81
2022/05/16 09:49:12;;;;;;;6.03;3.20;;;26.90;68.20;;;;;;5050279;28;20052;-81
2022/05/16 09:51:44;;;;;;;4.20;2.30;;;26.90;66.60;;;;;;5048072;28;20563;-81
2022/05/16 09:54:13;;;;;;;12.25;3.35;;;27.10;68.50;;;;;;5047210;28;20417;-81
2022/05/16 09:56:50;;;;;;;6.93;3.10;;;27.30;67.40;;;;;;5041937;28;20091;-81
2022/05/16 09:59:16;;;;;;;9.35;3.40;;;27.60;67.00;;;;;;5049859;28;20098;-81
2022/05/16 10:01:49;;;;;;;6.43;2.97;;;27.60;67.30;;;;;;5051983;28;20040;-81
2022/05/16 10:04:16;;;;;;;6.88;2.88;;;27.80;67.30;;;;;;5050624;28;20059;-81
2022/05/16 10:06:59;;;;;;;10.27;3.22;;;27.90;67.40;;;;;;5048292;28;20525;-81
2022/05/16 10:09:46;;;;;;;7.82;2.90;;;27.60;67.00;;;;;;5048375;28;20052;-81
2022/05/16 10:12:16;;;;;;;7.70;3.10;;;28.00;68.50;;;;;;5049741;28;20363;-81
2022/05/16 10:14:42;;;;;;;7.50;3.15;;;28.20;67.40;;;;;;5052173;28;20037;-81
2022/05/16 10:17:11;;;;;;;8.55;3.58;;;28.10;65.40;;;;;;5051307;28;20091;-81
2022/05/16 10:19:39;;;;;;;8.55;3.00;;;28.20;66.80;;;;;;5051300;28;20257;-81
2022/05/16 10:22:14;;;;;;;10.98;3.10;;;28.10;65.00;;;;;;5049694;28;20045;-81
2022/05/16 10:24:52;;;;;;;9.63;3.55;;;27.80;68.00;;;;;;5036956;28;20045;-80
2022/05/16 10:27:24;;;;;;;8.25;3.25;;;27.70;67.00;;;;;;5030060;28;20394;-81
2022/05/16 10:29:52;;;;;;;7.00;2.63;;;27.50;66.60;;;;;;5050615;28;20045;-81
2022/05/16 10:35:16;;;;;;;8.80;3.00;;;27.20;66.80;;;;;;5034424;28;20045;-81
2022/05/16 10:37:46;;;;;;;6.18;2.92;;;27.20;67.20;;;;;;5047325;28;20129;-81
2022/05/16 10:40:30;;;;;;;6.32;2.92;;;27.10;68.90;;;;;;5037810;28;20052;-81
2022/05/16 10:43:29;;;;;;;8.93;3.10;;;26.90;68.60;;;;;;5050319;28;20396;-81
2022/05/16 10:46:02;;;;;;;20.10;3.78;;;26.80;70.00;;;;;;5045812;28;20057;-81
2022/05/16 10:48:42;;;;;;;9.65;2.88;;;26.60;70.10;;;;;;5049850;28;20548;-81
2022/05/16 10:51:18;;;;;;;9.07;3.10;;;26.40;69.40;;;;;;5051657;28;20044;-80
2022/05/16 10:54:18;;;;;;;12.55;3.35;;;26.20;71.10;;;;;;5034078;28;20132;-81
2022/05/16 10:57:16;;;;;;;8.23;3.45;;;26.10;74.60;;;;;;5013999;28;20057;-81
2022/05/16 10:59:58;;;;;;;6.25;2.83;;;25.90;74.50;;;;;;5032982;28;20041;-81
2022/05/16 11:02:46;;;;;;;7.82;3.17;;;25.80;74.00;;;;;;5050473;28;20399;-80
2022/05/16 11:05:21;;;;;;;6.30;2.50;;;25.80;74.20;;;;;;5051197;28;20040;-81
2022/05/16 11:08:01;;;;;;;9.63;3.50;;;25.80;74.00;;;;;;5051532;28;20397;-82
2022/05/16 11:10:34;;;;;;;7.93;3.00;;;25.70;73.90;;;;;;5050049;28;20118;-81
2022/05/16 11:13:36;;;;;;;6.18;3.30;;;25.70;74.70;;;;;;5049038;28;20184;-80
2022/05/16 11:16:10;;;;;;;9.98;3.30;;;25.70;74.80;;;;;;5050362;28;20048;-80
2022/05/16 11:19:05;;;;;;;6.05;3.08;;;25.60;73.60;;;;;;5050420;28;20049;-80
2022/05/16 11:21:44;;;;;;;6.05;2.63;;;25.50;75.60;;;;;;4989774;28;20097;-81
2022/05/16 11:24:31;;;;;;;5.60;2.55;;;25.40;75.90;;;;;;4981280;28;20042;-81
2022/05/16 11:27:19;;;;;;;8.75;2.95;;;25.30;75.40;;;;;;4988279;28;20058;-81
2022/05/16 11:30:11;;;;;;;8.77;3.38;;;25.30;76.50;;;;;;4959973;28;20398;-81
2022/05/16 11:32:45;;;;;;;6.60;2.92;;;25.20;77.10;;;;;;4971524;28;20554;-81
2022/05/16 11:35:22;;;;;;;6.97;2.83;;;25.20;76.60;;;;;;4957193;28;20083;-80
2022/05/16 11:37:55;;;;;;;7.93;2.92;;;25.10;77.00;;;;;;4973123;28;20046;-81
2022/05/16 11:40:35;;;;;;;8.18;3.08;;;25.10;76.10;;;;;;4988501;28;20053;-81
2022/05/16 11:43:08;;;;;;;4.72;2.67;;;25.00;77.20;;;;;;4988557;28;20534;-81
2022/05/16 11:46:02;;;;;;;6.70;2.80;;;25.00;78.00;;;;;;4986727;28;20081;-81
2022/05/16 11:48:49;;;;;;;5.85;2.70;;;25.00;79.50;;;;;;4936808;28;20038;-81
2022/05/16 11:51:49;;;;;;;6.68;2.70;;;25.00;79.10;;;;;;4981526;28;20089;-80
2022/05/16 11:54:20;;;;;;;6.00;2.70;;;25.00;79.80;;;;;;4960408;28;20061;-81
2022/05/16 12:02:28;;;;;;;5.85;2.33;;;25.10;80.50;;;;;;5040247;28;20049;-81
2022/05/16 12:05:02;;;;;;;6.07;2.80;;;25.20;81.10;;;;;;5038917;28;20466;-81
2022/05/16 12:07:35;;;;;;;8.10;2.60;;;25.40;81.00;;;;;;5024526;28;20041;-81
2022/05/16 12:10:22;;;;;;;8.20;2.70;;;25.60;83.30;;;;;;5048704;28;20044;-81
2022/05/16 12:13:07;;;;;;;;;;;25.70;82.90;;;;;;5029064;28;20041;-81
2022/05/16 12:15:33;;;;;;;7.43;3.15;;;25.90;80.20;;;;;;5034626;28;19920;-81
2022/05/16 12:18:03;;;;;;;11.57;2.38;;;25.90;78.50;;;;;;5055471;28;20048;-81
2022/05/16 12:20:37;;;;;;;6.43;2.60;;;25.70;79.10;;;;;;5048311;28;20063;-81
2022/05/16 12:23:03;;;;;;;8.10;2.60;;;25.70;79.80;;;;;;5048917;28;20048;-81
2022/05/16 12:25:32;;;;;;;7.65;2.20;;;25.60;78.90;;;;;;5045850;28;20043;-81
2022/05/16 12:28:13;;;;;;;6.55;2.35;;;25.60;80.00;;;;;;5050435;28;20029;-81
2022/05/16 12:30:38;;;;;;;6.00;2.35;;;25.50;79.80;;;;;;5031216;28;20503;-81
2022/05/16 12:33:46;;;;;;;4.68;2.30;;;25.40;80.10;;;;;;5046368;28;20133;-81
2022/05/16 12:36:18;;;;;;;6.30;2.42;;;25.50;79.80;;;;;;5051174;28;20060;-81
2022/05/16 12:39:08;;;;;;;5.15;2.33;;;25.40;79.30;;;;;;5059490;28;20044;-81
2022/05/16 12:41:51;;;;;;;5.72;2.42;;;25.30;78.90;;;;;;5026640;28;20098;-81
2022/05/16 12:44:35;;;;;;;6.13;2.63;;;25.30;78.60;;;;;;5020021;28;20520;-81
2022/05/16 12:47:46;;;;;;;6.43;2.75;;;25.30;78.50;;;;;;5048838;28;20103;-81
2022/05/16 12:50:38;;;;;;;5.65;2.45;;;25.40;79.30;;;;;;5027624;28;20049;-81
2022/05/16 12:53:40;;;;;;;6.45;2.58;;;25.70;81.90;;;;;;5028629;28;20402;-81
2022/05/16 12:56:19;;;;;;;6.35;2.40;;;25.90;82.50;;;;;;5043381;28;20047;-81
2022/05/16 12:59:11;;;;;;;5.88;3.00;;;26.20;79.90;;;;;;5031496;28;20042;-81
2022/05/16 13:01:46;;;;;;;4.55;2.50;;;26.30;80.80;;;;;;5047910;28;20868;-81
2022/05/16 13:04:27;;;;;;;11.00;3.13;;;26.50;83.50;;;;;;5044786;28;20033;-81
2022/05/16 13:07:09;;;;;;;9.73;3.90;;;26.70;80.30;;;;;;5036424;28;20045;-81
2022/05/16 13:09:52;;;;;;;6.82;2.78;;;26.70;79.80;;;;;;5043014;28;20040;-82
2022/05/16 13:12:35;;;;;;;7.88;3.20;;;26.90;81.80;;;;;;5040623;28;20040;-82
2022/05/16 13:15:17;;;;;;;9.88;2.88;;;26.80;76.30;;;;;;5045353;28;20167;-82
2022/05/16 13:17:49;;;;;;;7.93;3.00;;;27.00;80.00;;;;;;5044573;28;20045;-82
2022/05/16 13:20:21;;;;;;;5.20;2.67;;;27.10;78.90;;;;;;5042028;28;20049;-82
2022/05/16 13:22:48;;;;;;;5.20;2.72;;;27.10;79.00;;;;;;5043770;28;20053;-82
2022/05/16 13:25:16;;;;;;;7.63;3.20;;;27.10;79.40;;;;;;5042183;28;20049;-82
2022/05/16 13:30:32;;;;;;;9.27;3.20;;;27.10;77.00;;;;;;5041350;28;20257;-81
2022/05/16 13:32:58;;;;;;;6.85;3.10;;;27.20;77.70;;;;;;5045499;28;20120;-82
2022/05/16 13:35:36;;;;;;;6.97;3.20;;;27.30;77.90;;;;;;5043607;28;20593;-82
2022/05/16 13:38:03;;;;;;;4.95;2.83;;;27.40;77.70;;;;;;5039622;28;20047;-82
2022/05/16 13:40:42;;;;;;;3.45;2.83;;;27.60;80.30;;;;;;5038704;28;20264;-82
2022/05/16 13:43:16;;;;;;;10.57;3.33;;;27.70;76.40;;;;;;5042256;28;20045;-82
2022/05/16 13:45:43;;;;;;;8.70;3.30;;;27.70;77.60;;;;;;5042149;28;20037;-82
2022/05/16 13:48:12;;;;;;;9.55;3.75;;;27.70;78.40;;;;;;5040189;28;20051;-82
2022/05/16 13:50:41;;;;;;;7.25;3.63;;;27.60;76.70;;;;;;5039082;28;20041;-81
2022/05/16 13:53:08;;;;;;;7.90;3.78;;;27.60;77.70;;;;;;5036824;28;20550;-82